Time;durP1;ratioP1;P1;durP2;ratioP2;P2;SDS_P1;SDS_P2;PMS_P1;PMS_P2;Temp;Humidity;BMP_temperature;BMP_pressure;BME280_temperature;BME280_humidity;BME280_pressure;Samples;Min_cycle;Max_cycle;Signal;HPM_P1;HPM_P2
2023/09/01 00:15:09;;;;;;;2.83;1.75;;;;;;;22.51;42.42;100431.88;41506049;28;20046;-73
2023/09/01 00:35:10;;;;;;;2.63;1.40;;;;;;;22.07;44.31;100451.16;41475920;28;20053;-72
2023/09/01 00:55:12;;;;;;;2.67;1.80;;;;;;;21.95;44.87;100448.66;41509987;28;20065;-74
2023/09/01 01:15:14;;;;;;;2.38;1.80;;;;;;;21.85;45.50;100462.59;41553869;28;20050;-72
2023/09/01 01:35:40;;;;;;;4.45;1.90;;;;;;;21.63;45.97;100462.59;41551687;28;20053;-73
2023/09/01 01:55:41;;;;;;;1.80;1.58;;;;;;;21.72;46.04;100454.78;41555970;28;20052;-74
2023/09/01 02:15:50;;;;;;;3.83;1.88;;;;;;;21.57;46.07;100483.19;41568100;28;21035;-72
2023/09/01 02:35:50;;;;;;;2.00;1.80;;;;;;;21.38;47.00;100489.00;41565478;28;20064;-74
2023/09/01 02:55:51;;;;;;;3.20;1.80;;;;;;;21.24;47.61;100489.25;41553211;28;20053;-76
2023/09/01 03:15:54;;;;;;;3.03;1.98;;;;;;;21.02;48.98;100495.25;41547338;28;20477;-74
2023/09/01 03:36:00;;;;;;;8.65;5.90;;;;;;;21.00;49.06;100505.91;41551247;28;20678;-74
2023/09/01 03:56:13;;;;;;;6.10;2.87;;;;;;;20.93;49.83;100518.72;41496572;28;20107;-73
2023/09/01 04:16:14;;;;;;;5.45;2.30;;;;;;;22.88;45.60;100509.84;41504641;28;20814;-75
2023/09/01 04:36:14;;;;;;;5.45;3.00;;;;;;;23.16;45.88;100511.00;41540425;28;20054;-75
2023/09/01 04:56:18;;;;;;;8.25;2.80;;;;;;;22.60;47.31;100523.47;41560948;28;20632;-75
2023/09/01 05:16:37;;;;;;;7.65;2.90;;;;;;;21.62;48.52;100426.66;41578699;28;20057;-74
2023/09/01 05:36:39;;;;;;;4.07;2.55;;;;;;;22.03;46.62;100339.00;41643675;28;20042;-81
2023/09/01 05:57:08;;;;;;;7.20;2.72;;;;;;;22.66;47.45;100538.81;41532718;28;20042;-74
2023/09/01 06:17:10;;;;;;;7.05;2.97;;;;;;;23.34;45.96;100556.22;41588411;28;20129;-74
2023/09/01 06:37:10;;;;;;;4.25;2.45;;;;;;;23.50;45.97;100537.25;41586807;28;20041;-76
2023/09/01 06:57:10;;;;;;;2.30;2.00;;;;;;;23.44;45.62;100554.44;41610024;28;20572;-75
2023/09/01 07:17:12;;;;;;;3.78;2.20;;;;;;;23.54;45.17;100583.59;41637312;28;20081;-76
2023/09/01 07:37:12;;;;;;;3.67;2.33;;;;;;;23.50;45.30;100566.31;41608688;28;20128;-76
2023/09/01 07:57:13;;;;;;;5.00;2.00;;;;;;;23.76;44.88;100593.16;41602251;28;20056;-77
2023/09/01 08:17:14;;;;;;;3.92;1.90;;;;;;;23.18;45.01;100475.59;41635342;28;20042;-78
2023/09/01 08:37:17;;;;;;;5.43;1.60;;;;;;;22.65;45.68;100391.13;41625954;28;20062;-72
2023/09/01 08:57:18;;;;;;;6.20;2.60;;;;;;;23.69;45.23;100540.94;41600798;28;20033;-72
2023/09/01 09:17:40;;;;;;;36.45;4.47;;;;;;;22.84;45.55;100382.53;41622613;28;20045;-74
2023/09/01 09:37:41;;;;;;;11.13;2.33;;;;;;;24.24;45.58;100580.31;41646500;28;20113;-74
2023/09/01 09:57:43;;;;;;;4.60;1.88;;;;;;;23.23;44.67;100488.41;41640381;28;20072;-76
2023/09/01 10:17:46;;;;;;;1.95;1.80;;;;;;;22.76;43.54;100379.69;41636857;28;20403;-76
2023/09/01 10:38:14;;;;;;;2.65;1.70;;;;;;;24.36;42.39;100538.72;41609380;28;20525;-74
2023/09/01 10:58:15;;;;;;;9.10;2.05;;;;;;;22.96;43.46;100310.19;41629252;28;20033;-74
2023/09/01 11:18:37;;;;;;;2.35;1.90;;;;;;;24.88;42.44;100552.59;41625658;28;20064;-76
2023/09/01 11:38:43;;;;;;;2.50;1.50;;;;;;;24.78;40.71;100542.00;41604596;28;20038;-76
2023/09/01 11:58:47;;;;;;;3.22;1.80;;;;;;;24.81;41.02;100532.09;41603589;28;20049;-77
2023/09/01 12:18:49;;;;;;;2.00;1.45;;;;;;;25.17;40.29;100519.09;41534376;28;24268;-74
2023/09/01 12:38:49;;;;;;;1.70;1.42;;;;;;;25.70;39.02;100517.75;41546216;28;20041;-75
2023/09/01 12:58:49;;;;;;;4.65;1.40;;;;;;;25.53;38.83;100451.22;41582313;28;20560;-72
2023/09/01 13:19:04;;;;;;;3.40;1.40;;;;;;;25.57;38.50;100494.19;41628630;28;20061;-72
2023/09/01 13:39:05;;;;;;;2.58;1.30;;;;;;;25.10;38.81;100384.53;41609256;28;20050;-78
2023/09/01 13:59:06;;;;;;;2.15;1.60;;;;;;;25.89;38.82;100461.94;41636899;28;20396;-74
2023/09/01 14:19:07;;;;;;;3.42;1.20;;;;;;;26.02;38.01;100444.84;41611988;28;20725;-76
2023/09/01 14:39:10;;;;;;;3.67;1.60;;;;;;;25.72;39.61;100460.91;41609494;28;20049;-73
2023/09/01 14:59:13;;;;;;;2.63;1.50;;;;;;;25.98;37.34;100408.97;41620844;28;20037;-75
2023/09/01 15:19:18;;;;;;;2.47;1.40;;;;;;;25.98;37.87;100424.91;41622815;28;20053;-77
2023/09/01 15:39:20;;;;;;;4.07;1.33;;;;;;;26.00;36.68;100401.69;41599289;28;20075;-75
2023/09/01 15:59:20;;;;;;;2.53;1.40;;;;;;;26.18;36.62;100415.00;41625373;28;20041;-76
2023/09/01 16:19:23;;;;;;;1.75;1.33;;;;;;;25.97;36.80;100383.44;41618258;28;20111;-76
2023/09/01 16:39:25;;;;;;;1.90;1.45;;;;;;;25.79;37.54;100408.09;41603290;28;20081;-76
2023/09/01 16:59:29;;;;;;;1.60;1.50;;;;;;;25.57;36.73;100435.84;41546251;28;20508;-74
2023/09/01 17:19:31;;;;;;;2.72;1.40;;;;;;;25.42;37.92;100452.25;41592111;28;20056;-73
2023/09/01 17:39:32;;;;;;;14.88;8.52;;;;;;;25.64;40.33;100442.25;41564752;28;20065;-78
2023/09/01 17:59:35;;;;;;;8.23;5.80;;;;;;;26.12;42.38;100466.88;41451907;28;20050;-77
2023/09/01 18:19:41;;;;;;;9.52;6.57;;;;;;;25.99;43.24;100490.25;41522466;28;20138;-77
2023/09/01 18:39:44;;;;;;;8.73;4.32;;;;;;;25.98;43.00;100517.75;41634910;28;20443;-74
2023/09/01 18:59:49;;;;;;;6.10;3.50;;;;;;;25.89;42.79;100503.56;41604053;28;20543;-74
2023/09/01 19:19:50;;;;;;;6.03;3.08;;;;;;;25.61;43.15;100473.53;41625738;28;20302;-75
2023/09/01 19:39:52;;;;;;;4.97;3.05;;;;;;;25.95;43.40;100531.31;41546957;28;20045;-74
2023/09/01 19:59:54;;;;;;;8.90;3.35;;;;;;;25.53;44.25;100528.09;41537039;28;20049;-74
2023/09/01 20:19:55;;;;;;;4.35;2.90;;;;;;;24.61;44.28;100545.31;41544162;28;20056;-75
2023/09/01 20:39:57;;;;;;;5.25;3.13;;;;;;;24.32;44.82;100535.50;41567793;28;20052;-73
2023/09/01 20:59:57;;;;;;;8.02;3.13;;;;;;;24.09;46.22;100551.56;41547351;28;20041;-74
2023/09/01 21:19:59;;;;;;;13.00;3.78;;;;;;;23.76;47.36;100565.91;41546595;28;20132;-74
2023/09/01 21:39:59;;;;;;;7.95;3.67;;;;;;;23.67;47.88;100578.94;41600739;28;20048;-73
2023/09/01 21:59:59;;;;;;;6.90;3.45;;;;;;;23.49;48.33;100570.75;41604617;28;20056;-73
2023/09/01 22:20:00;;;;;;;5.82;3.75;;;;;;;23.20;49.34;100589.03;41588335;28;20042;-73
2023/09/01 22:40:02;;;;;;;9.13;3.70;;;;;;;23.06;50.22;100611.28;41563300;28;20050;-73
2023/09/01 23:00:03;;;;;;;7.93;3.67;;;;;;;22.98;50.34;100605.78;41528296;28;20053;-73
2023/09/01 23:20:05;;;;;;;5.40;2.80;;;;;;;22.97;50.15;100583.84;41581574;28;20041;-75
2023/09/01 23:40:09;;;;;;;4.43;3.10;;;;;;;22.65;51.48;100621.59;41568396;28;20148;-74
